Terminal Aerodrome Forecast
Issued by NWS

Home | Current Version | Previous Version | Text Only | Print | Product List | Glossary On
Versions: 1 2 3 4 5 6 7 8 9 10 11 12 13 14 15 16 17 18 19 20 21 22 23 24
930
FTUS46 KOTX 240539
TAFCOE
TAF
KCOE 240539Z 2406/2506 15004KT P6SM VCSH SCT100 OVC120
     FM241000 14005KT P6SM -SHRA VCTS BKN070CB OVC100
     FM241400 17008KT P6SM BKN070 OVC100
     FM241900 20012G19KT P6SM SCT070 SCT100
     FM250300 21007KT P6SM FEW200=

USA.gov is the U.S. government's official web portal to all federal, state and local government web resources and services.